sensor_id;sensor_type;location;lat;lon;timestamp;P1;P2;P0
62547;PMS7003;48602;45.192;5.722;2022-07-24T00:01:46;15.00;13.50;11.50
62547;PMS7003;48602;45.192;5.722;2022-07-24T00:04:12;15.25;15.25;12.00
62547;PMS7003;48602;45.192;5.722;2022-07-24T00:06:37;16.25;16.00;13.25
62547;PMS7003;48602;45.192;5.722;2022-07-24T00:09:03;16.00;14.50;12.75
62547;PMS7003;48602;45.192;5.722;2022-07-24T00:11:30;18.00;15.75;12.75
62547;PMS7003;48602;45.192;5.722;2022-07-24T00:13:55;15.75;13.00;10.75
62547;PMS7003;48602;45.192;5.722;2022-07-24T00:16:21;19.00;13.75;12.00
62547;PMS7003;48602;45.192;5.722;2022-07-24T00:18:46;13.00;13.00;10.50
62547;PMS7003;48602;45.192;5.722;2022-07-24T00:21:12;15.25;13.75;10.25
62547;PMS7003;48602;45.192;5.722;2022-07-24T00:23:37;16.50;14.25;11.25
62547;PMS7003;48602;45.192;5.722;2022-07-24T00:26:03;15.50;13.00;9.75
62547;PMS7003;48602;45.192;5.722;2022-07-24T00:28:28;15.50;14.75;12.25
62547;PMS7003;48602;45.192;5.722;2022-07-24T00:30:54;15.50;15.50;11.50
62547;PMS7003;48602;45.192;5.722;2022-07-24T00:33:19;16.25;14.00;11.75
62547;PMS7003;48602;45.192;5.722;2022-07-24T00:35:45;17.00;16.00;13.00
62547;PMS7003;48602;45.192;5.722;2022-07-24T00:38:10;13.33;12.00;10.00
62547;PMS7003;48602;45.192;5.722;2022-07-24T00:40:36;14.50;14.00;10.50
62547;PMS7003;48602;45.192;5.722;2022-07-24T00:43:02;15.75;15.50;14.00
62547;PMS7003;48602;45.192;5.722;2022-07-24T00:45:28;15.00;15.00;13.00
62547;PMS7003;48602;45.192;5.722;2022-07-24T00:47:54;17.25;14.25;12.25
62547;PMS7003;48602;45.192;5.722;2022-07-24T00:50:20;15.25;14.00;11.50
62547;PMS7003;48602;45.192;5.722;2022-07-24T00:52:45;17.50;16.00;12.25
62547;PMS7003;48602;45.192;5.722;2022-07-24T00:55:11;16.50;15.00;10.25
62547;PMS7003;48602;45.192;5.722;2022-07-24T00:57:37;16.00;16.00;12.00
62547;PMS7003;48602;45.192;5.722;2022-07-24T01:00:04;20.50;17.00;14.00
62547;PMS7003;48602;45.192;5.722;2022-07-24T01:02:31;16.00;14.50;11.25
62547;PMS7003;48602;45.192;5.722;2022-07-24T01:04:57;19.00;15.50;12.25
62547;PMS7003;48602;45.192;5.722;2022-07-24T01:07:22;18.00;16.25;13.75
62547;PMS7003;48602;45.192;5.722;2022-07-24T01:09:47;15.25;14.50;12.75
62547;PMS7003;48602;45.192;5.722;2022-07-24T01:12:13;16.50;13.75;10.25
62547;PMS7003;48602;45.192;5.722;2022-07-24T01:14:39;14.25;14.00;11.00
62547;PMS7003;48602;45.192;5.722;2022-07-24T01:17:04;12.25;10.50;8.25
62547;PMS7003;48602;45.192;5.722;2022-07-24T01:19:30;17.00;15.00;12.25
62547;PMS7003;48602;45.192;5.722;2022-07-24T01:21:55;13.50;13.50;10.25
62547;PMS7003;48602;45.192;5.722;2022-07-24T01:24:21;17.00;17.00;13.75
62547;PMS7003;48602;45.192;5.722;2022-07-24T01:26:47;17.50;17.00;12.50
62547;PMS7003;48602;45.192;5.722;2022-07-24T01:29:13;16.00;16.00;13.50
62547;PMS7003;48602;45.192;5.722;2022-07-24T01:31:40;16.50;16.00;12.00
62547;PMS7003;48602;45.192;5.722;2022-07-24T01:34:05;14.00;14.00;12.00
62547;PMS7003;48602;45.192;5.722;2022-07-24T01:36:31;14.50;14.50;11.25
62547;PMS7003;48602;45.192;5.722;2022-07-24T01:38:57;17.50;15.00;13.00
62547;PMS7003;48602;45.192;5.722;2022-07-24T01:41:22;13.75;13.75;10.75
62547;PMS7003;48602;45.192;5.722;2022-07-24T01:43:48;13.25;13.00;11.00
62547;PMS7003;48602;45.192;5.722;2022-07-24T01:46:13;16.50;15.75;12.00
62547;PMS7003;48602;45.192;5.722;2022-07-24T01:48:40;16.75;13.00;11.75
62547;PMS7003;48602;45.192;5.722;2022-07-24T01:51:09;14.50;14.25;11.25
62547;PMS7003;48602;45.192;5.722;2022-07-24T01:53:35;12.00;11.50;10.75
62547;PMS7003;48602;45.192;5.722;2022-07-24T01:56:01;17.00;16.50;12.75
62547;PMS7003;48602;45.192;5.722;2022-07-24T01:58:26;18.25;16.00;13.00
62547;PMS7003;48602;45.192;5.722;2022-07-24T02:00:52;15.25;15.25;10.00
62547;PMS7003;48602;45.192;5.722;2022-07-24T02:03:18;13.00;13.00;11.25
62547;PMS7003;48602;45.192;5.722;2022-07-24T02:05:44;12.75;11.75;9.75
62547;PMS7003;48602;45.192;5.722;2022-07-24T02:08:09;16.00;15.00;12.25
62547;PMS7003;48602;45.192;5.722;2022-07-24T02:10:35;15.25;14.00;11.00
62547;PMS7003;48602;45.192;5.722;2022-07-24T02:13:00;16.25;15.25;11.75
62547;PMS7003;48602;45.192;5.722;2022-07-24T02:15:26;14.00;13.75;11.00
62547;PMS7003;48602;45.192;5.722;2022-07-24T02:17:53;17.50;15.50;13.00
62547;PMS7003;48602;45.192;5.722;2022-07-24T02:20:20;15.75;14.75;12.00
62547;PMS7003;48602;45.192;5.722;2022-07-24T02:22:46;14.50;13.25;11.00
62547;PMS7003;48602;45.192;5.722;2022-07-24T02:25:12;16.50;15.25;13.25
62547;PMS7003;48602;45.192;5.722;2022-07-24T02:27:38;14.50;14.25;11.00
62547;PMS7003;48602;45.192;5.722;2022-07-24T02:30:03;12.00;12.00;11.75
62547;PMS7003;48602;45.192;5.722;2022-07-24T02:32:30;15.00;13.00;11.00
62547;PMS7003;48602;45.192;5.722;2022-07-24T02:34:56;18.00;16.00;12.25
62547;PMS7003;48602;45.192;5.722;2022-07-24T02:37:21;14.50;14.00;11.25
62547;PMS7003;48602;45.192;5.722;2022-07-24T02:39:46;16.25;14.00;12.00
62547;PMS7003;48602;45.192;5.722;2022-07-24T02:42:12;17.75;15.00;12.50
62547;PMS7003;48602;45.192;5.722;2022-07-24T02:44:37;18.75;17.00;13.25
62547;PMS7003;48602;45.192;5.722;2022-07-24T02:47:02;18.50;15.75;12.75
62547;PMS7003;48602;45.192;5.722;2022-07-24T02:49:28;15.00;15.00;13.50
62547;PMS7003;48602;45.192;5.722;2022-07-24T02:51:53;16.00;14.50;12.00
62547;PMS7003;48602;45.192;5.722;2022-07-24T02:54:19;17.00;13.00;11.00
62547;PMS7003;48602;45.192;5.722;2022-07-24T02:56:44;18.00;17.00;13.25
62547;PMS7003;48602;45.192;5.722;2022-07-24T02:59:09;16.75;16.25;13.25
62547;PMS7003;48602;45.192;5.722;2022-07-24T03:01:35;19.25;17.50;13.50
62547;PMS7003;48602;45.192;5.722;2022-07-24T03:04:00;15.75;15.25;12.50
62547;PMS7003;48602;45.192;5.722;2022-07-24T03:06:26;16.50;16.25;13.50
62547;PMS7003;48602;45.192;5.722;2022-07-24T03:08:51;13.50;13.50;12.00
62547;PMS7003;48602;45.192;5.722;2022-07-24T03:11:17;16.75;16.00;13.50
62547;PMS7003;48602;45.192;5.722;2022-07-24T03:13:42;18.25;18.25;13.00
62547;PMS7003;48602;45.192;5.722;2022-07-24T03:16:07;16.75;16.50;14.25
62547;PMS7003;48602;45.192;5.722;2022-07-24T03:18:33;15.00;13.75;11.50
62547;PMS7003;48602;45.192;5.722;2022-07-24T03:20:58;16.00;16.00;11.25
62547;PMS7003;48602;45.192;5.722;2022-07-24T03:23:24;16.50;16.25;13.00
62547;PMS7003;48602;45.192;5.722;2022-07-24T03:25:49;11.50;11.50;9.00
62547;PMS7003;48602;45.192;5.722;2022-07-24T03:28:15;17.00;15.00;13.25
62547;PMS7003;48602;45.192;5.722;2022-07-24T03:30:40;16.75;15.50;12.75
62547;PMS7003;48602;45.192;5.722;2022-07-24T03:33:06;16.25;15.50;13.00
62547;PMS7003;48602;45.192;5.722;2022-07-24T03:35:31;13.75;11.50;9.50
62547;PMS7003;48602;45.192;5.722;2022-07-24T03:37:57;16.25;15.50;12.75
62547;PMS7003;48602;45.192;5.722;2022-07-24T03:40:22;17.75;17.50;14.25
62547;PMS7003;48602;45.192;5.722;2022-07-24T03:42:48;20.00;17.75;15.00
62547;PMS7003;48602;45.192;5.722;2022-07-24T03:45:13;16.25;15.75;11.25
62547;PMS7003;48602;45.192;5.722;2022-07-24T03:47:39;16.25;14.50;11.25
62547;PMS7003;48602;45.192;5.722;2022-07-24T03:50:04;18.75;16.75;13.75
62547;PMS7003;48602;45.192;5.722;2022-07-24T03:52:30;17.00;16.00;12.75
62547;PMS7003;48602;45.192;5.722;2022-07-24T03:54:55;17.25;17.25;13.25
62547;PMS7003;48602;45.192;5.722;2022-07-24T03:57:23;19.75;17.00;14.25
62547;PMS7003;48602;45.192;5.722;2022-07-24T03:59:48;17.00;15.75;13.25
62547;PMS7003;48602;45.192;5.722;2022-07-24T04:02:14;16.00;16.00;13.75
62547;PMS7003;48602;45.192;5.722;2022-07-24T04:04:39;20.75;19.00;16.25
62547;PMS7003;48602;45.192;5.722;2022-07-24T04:07:05;17.75;15.00;12.25
62547;PMS7003;48602;45.192;5.722;2022-07-24T04:09:30;19.25;17.75;13.75
62547;PMS7003;48602;45.192;5.722;2022-07-24T04:11:56;19.25;18.75;15.50
62547;PMS7003;48602;45.192;5.722;2022-07-24T04:14:21;19.25;19.00;14.75
62547;PMS7003;48602;45.192;5.722;2022-07-24T04:16:47;19.50;17.50;13.75
62547;PMS7003;48602;45.192;5.722;2022-07-24T04:19:12;19.50;19.50;16.00
62547;PMS7003;48602;45.192;5.722;2022-07-24T04:21:38;18.25;17.50;14.00
62547;PMS7003;48602;45.192;5.722;2022-07-24T04:24:05;19.00;18.00;14.00
62547;PMS7003;48602;45.192;5.722;2022-07-24T04:26:30;24.50;21.00;17.00
62547;PMS7003;48602;45.192;5.722;2022-07-24T04:28:56;21.75;19.50;14.75
62547;PMS7003;48602;45.192;5.722;2022-07-24T04:31:21;20.00;17.75;14.00
62547;PMS7003;48602;45.192;5.722;2022-07-24T04:33:46;15.25;15.25;11.50
62547;PMS7003;48602;45.192;5.722;2022-07-24T04:36:12;20.00;17.25;13.50
62547;PMS7003;48602;45.192;5.722;2022-07-24T04:38:37;16.50;16.50;14.50
62547;PMS7003;48602;45.192;5.722;2022-07-24T04:41:03;16.25;16.25;13.00
62547;PMS7003;48602;45.192;5.722;2022-07-24T04:43:29;20.25;18.00;14.50
62547;PMS7003;48602;45.192;5.722;2022-07-24T04:45:55;19.75;18.00;15.00
62547;PMS7003;48602;45.192;5.722;2022-07-24T04:48:20;20.00;18.00;15.25
62547;PMS7003;48602;45.192;5.722;2022-07-24T04:50:46;18.75;18.00;14.00
62547;PMS7003;48602;45.192;5.722;2022-07-24T04:53:11;17.75;17.00;13.75
62547;PMS7003;48602;45.192;5.722;2022-07-24T04:55:37;18.50;15.75;14.00
62547;PMS7003;48602;45.192;5.722;2022-07-24T04:58:02;19.00;17.75;16.00
62547;PMS7003;48602;45.192;5.722;2022-07-24T05:00:28;19.25;18.25;14.75
62547;PMS7003;48602;45.192;5.722;2022-07-24T05:02:54;19.25;18.75;14.50
62547;PMS7003;48602;45.192;5.722;2022-07-24T05:05:19;21.00;19.50;15.00
62547;PMS7003;48602;45.192;5.722;2022-07-24T05:07:45;21.50;18.50;14.75
62547;PMS7003;48602;45.192;5.722;2022-07-24T05:10:10;17.75;17.75;14.00
62547;PMS7003;48602;45.192;5.722;2022-07-24T05:12:36;23.25;18.50;14.25
62547;PMS7003;48602;45.192;5.722;2022-07-24T05:15:02;18.00;18.00;14.50
62547;PMS7003;48602;45.192;5.722;2022-07-24T05:17:28;18.00;17.25;12.50
62547;PMS7003;48602;45.192;5.722;2022-07-24T05:19:54;19.75;17.75;14.00
62547;PMS7003;48602;45.192;5.722;2022-07-24T05:22:20;20.25;19.00;14.75
62547;PMS7003;48602;45.192;5.722;2022-07-24T05:24:45;25.50;21.00;16.75
62547;PMS7003;48602;45.192;5.722;2022-07-24T05:27:10;22.50;20.75;16.50
62547;PMS7003;48602;45.192;5.722;2022-07-24T05:29:36;21.00;19.50;14.25
62547;PMS7003;48602;45.192;5.722;2022-07-24T05:32:01;24.25;24.25;17.00
62547;PMS7003;48602;45.192;5.722;2022-07-24T05:34:27;24.75;22.50;17.50
62547;PMS7003;48602;45.192;5.722;2022-07-24T05:36:52;22.67;22.00;15.00
62547;PMS7003;48602;45.192;5.722;2022-07-24T05:39:18;23.75;22.75;17.00
62547;PMS7003;48602;45.192;5.722;2022-07-24T05:41:43;23.75;21.75;16.00
62547;PMS7003;48602;45.192;5.722;2022-07-24T05:44:08;24.00;22.50;17.00
62547;PMS7003;48602;45.192;5.722;2022-07-24T05:46:34;23.75;20.50;17.50
62547;PMS7003;48602;45.192;5.722;2022-07-24T05:48:59;26.50;25.75;17.75
62547;PMS7003;48602;45.192;5.722;2022-07-24T05:51:24;21.50;20.00;14.25
62547;PMS7003;48602;45.192;5.722;2022-07-24T05:53:50;26.25;22.50;18.00
62547;PMS7003;48602;45.192;5.722;2022-07-24T05:56:16;21.50;20.50;16.25
62547;PMS7003;48602;45.192;5.722;2022-07-24T05:58:41;20.00;20.00;16.25
62547;PMS7003;48602;45.192;5.722;2022-07-24T06:01:07;26.25;24.75;18.25
62547;PMS7003;48602;45.192;5.722;2022-07-24T06:03:32;25.75;21.25;16.25
62547;PMS7003;48602;45.192;5.722;2022-07-24T06:05:57;24.25;21.75;18.50
62547;PMS7003;48602;45.192;5.722;2022-07-24T06:08:23;20.50;20.50;15.25
62547;PMS7003;48602;45.192;5.722;2022-07-24T06:10:48;24.50;23.25;19.00
62547;PMS7003;48602;45.192;5.722;2022-07-24T06:13:13;23.25;20.75;16.75
62547;PMS7003;48602;45.192;5.722;2022-07-24T06:15:39;25.75;21.25;16.25
62547;PMS7003;48602;45.192;5.722;2022-07-24T06:18:04;24.50;20.75;17.00
62547;PMS7003;48602;45.192;5.722;2022-07-24T06:20:30;24.50;24.50;18.50
62547;PMS7003;48602;45.192;5.722;2022-07-24T06:22:55;20.50;20.00;16.25
62547;PMS7003;48602;45.192;5.722;2022-07-24T06:25:20;19.75;19.25;16.75
62547;PMS7003;48602;45.192;5.722;2022-07-24T06:27:47;19.50;19.25;15.00
62547;PMS7003;48602;45.192;5.722;2022-07-24T06:30:32;24.00;22.50;17.25
62547;PMS7003;48602;45.192;5.722;2022-07-24T06:32:57;23.75;22.00;16.75
62547;PMS7003;48602;45.192;5.722;2022-07-24T06:35:24;22.67;22.00;18.33
62547;PMS7003;48602;45.192;5.722;2022-07-24T06:37:51;24.00;23.00;19.00
62547;PMS7003;48602;45.192;5.722;2022-07-24T06:40:17;25.25;24.75;19.25
62547;PMS7003;48602;45.192;5.722;2022-07-24T06:42:44;22.00;22.00;16.25
62547;PMS7003;48602;45.192;5.722;2022-07-24T06:45:11;19.75;19.75;15.50
62547;PMS7003;48602;45.192;5.722;2022-07-24T06:47:37;25.25;20.50;17.25
62547;PMS7003;48602;45.192;5.722;2022-07-24T06:50:03;20.75;20.25;17.00
62547;PMS7003;48602;45.192;5.722;2022-07-24T06:52:29;22.25;19.00;15.00
62547;PMS7003;48602;45.192;5.722;2022-07-24T06:54:54;24.00;23.00;17.00
62547;PMS7003;48602;45.192;5.722;2022-07-24T06:57:20;21.50;21.00;17.25
62547;PMS7003;48602;45.192;5.722;2022-07-24T06:59:45;25.00;22.75;15.75
62547;PMS7003;48602;45.192;5.722;2022-07-24T07:02:12;22.50;21.25;18.25
62547;PMS7003;48602;45.192;5.722;2022-07-24T07:04:37;24.00;21.75;17.25
62547;PMS7003;48602;45.192;5.722;2022-07-24T07:07:03;24.00;21.00;17.25
62547;PMS7003;48602;45.192;5.722;2022-07-24T07:09:29;22.75;21.50;16.75
62547;PMS7003;48602;45.192;5.722;2022-07-24T07:11:54;21.25;20.75;16.50
62547;PMS7003;48602;45.192;5.722;2022-07-24T07:14:20;20.25;20.00;16.00
62547;PMS7003;48602;45.192;5.722;2022-07-24T07:16:46;19.50;19.50;14.50
62547;PMS7003;48602;45.192;5.722;2022-07-24T07:19:11;24.00;22.75;18.00
62547;PMS7003;48602;45.192;5.722;2022-07-24T07:21:37;20.75;20.00;16.75
62547;PMS7003;48602;45.192;5.722;2022-07-24T07:24:03;21.50;20.25;16.50
62547;PMS7003;48602;45.192;5.722;2022-07-24T07:26:29;21.50;21.25;16.75
62547;PMS7003;48602;45.192;5.722;2022-07-24T07:28:55;27.00;23.00;19.25
62547;PMS7003;48602;45.192;5.722;2022-07-24T07:31:20;24.00;23.00;18.00
62547;PMS7003;48602;45.192;5.722;2022-07-24T07:33:47;23.75;22.00;18.25
62547;PMS7003;48602;45.192;5.722;2022-07-24T07:36:13;26.50;24.00;18.25
62547;PMS7003;48602;45.192;5.722;2022-07-24T07:38:38;23.50;20.00;16.75
62547;PMS7003;48602;45.192;5.722;2022-07-24T07:41:05;24.75;23.50;19.00
62547;PMS7003;48602;45.192;5.722;2022-07-24T07:43:31;19.25;18.00;15.25
62547;PMS7003;48602;45.192;5.722;2022-07-24T07:45:56;26.00;25.33;18.33
62547;PMS7003;48602;45.192;5.722;2022-07-24T07:48:22;25.50;20.25;16.25
62547;PMS7003;48602;45.192;5.722;2022-07-24T07:50:47;23.50;21.50;15.75
62547;PMS7003;48602;45.192;5.722;2022-07-24T07:53:12;22.25;21.75;18.00
62547;PMS7003;48602;45.192;5.722;2022-07-24T07:55:38;22.00;20.75;16.50
62547;PMS7003;48602;45.192;5.722;2022-07-24T07:58:04;20.00;18.00;14.25
62547;PMS7003;48602;45.192;5.722;2022-07-24T08:00:30;23.00;22.25;17.25
62547;PMS7003;48602;45.192;5.722;2022-07-24T08:02:56;23.50;21.50;16.25
62547;PMS7003;48602;45.192;5.722;2022-07-24T08:05:21;20.00;19.75;17.00
62547;PMS7003;48602;45.192;5.722;2022-07-24T08:07:47;20.75;20.75;17.00
62547;PMS7003;48602;45.192;5.722;2022-07-24T08:10:12;27.00;24.25;17.50
62547;PMS7003;48602;45.192;5.722;2022-07-24T08:12:38;24.25;22.00;17.25
62547;PMS7003;48602;45.192;5.722;2022-07-24T08:15:04;23.25;20.25;15.75
62547;PMS7003;48602;45.192;5.722;2022-07-24T08:17:30;26.75;22.00;16.75
62547;PMS7003;48602;45.192;5.722;2022-07-24T08:19:55;21.50;21.50;18.25
62547;PMS7003;48602;45.192;5.722;2022-07-24T08:22:21;21.75;21.00;15.50
62547;PMS7003;48602;45.192;5.722;2022-07-24T08:24:46;21.25;20.50;15.75
62547;PMS7003;48602;45.192;5.722;2022-07-24T08:27:11;23.75;20.25;16.00
62547;PMS7003;48602;45.192;5.722;2022-07-24T08:29:37;21.75;19.25;15.00
62547;PMS7003;48602;45.192;5.722;2022-07-24T08:32:02;21.00;20.75;16.00
62547;PMS7003;48602;45.192;5.722;2022-07-24T08:34:28;22.00;22.00;17.25
62547;PMS7003;48602;45.192;5.722;2022-07-24T08:36:53;22.25;20.50;17.25
62547;PMS7003;48602;45.192;5.722;2022-07-24T08:39:19;22.67;21.33;16.67
62547;PMS7003;48602;45.192;5.722;2022-07-24T08:41:44;21.25;21.25;16.25
62547;PMS7003;48602;45.192;5.722;2022-07-24T08:44:10;20.50;19.00;15.25
62547;PMS7003;48602;45.192;5.722;2022-07-24T08:46:36;20.75;20.75;16.25
62547;PMS7003;48602;45.192;5.722;2022-07-24T08:49:02;20.00;18.25;14.75
62547;PMS7003;48602;45.192;5.722;2022-07-24T08:51:39;20.00;20.00;16.25
62547;PMS7003;48602;45.192;5.722;2022-07-24T08:54:06;22.75;22.50;18.25
62547;PMS7003;48602;45.192;5.722;2022-07-24T08:56:32;22.50;21.75;18.00
62547;PMS7003;48602;45.192;5.722;2022-07-24T08:59:02;23.00;21.00;16.75
62547;PMS7003;48602;45.192;5.722;2022-07-24T09:01:27;23.00;21.25;16.00
62547;PMS7003;48602;45.192;5.722;2022-07-24T09:03:53;22.50;21.75;18.00
62547;PMS7003;48602;45.192;5.722;2022-07-24T09:06:19;22.50;21.75;17.75
62547;PMS7003;48602;45.192;5.722;2022-07-24T09:08:57;21.00;20.25;17.25
62547;PMS7003;48602;45.192;5.722;2022-07-24T09:11:25;27.25;24.50;18.25
62547;PMS7003;48602;45.192;5.722;2022-07-24T09:13:53;23.50;23.00;17.25
62547;PMS7003;48602;45.192;5.722;2022-07-24T09:16:42;21.75;21.75;17.75
62547;PMS7003;48602;45.192;5.722;2022-07-24T09:19:08;26.00;23.50;19.00
62547;PMS7003;48602;45.192;5.722;2022-07-24T09:21:35;21.00;20.25;16.50
62547;PMS7003;48602;45.192;5.722;2022-07-24T09:24:12;19.50;19.25;16.25
62547;PMS7003;48602;45.192;5.722;2022-07-24T09:26:55;21.25;20.75;16.25
62547;PMS7003;48602;45.192;5.722;2022-07-24T09:29:22;22.75;21.25;16.75
62547;PMS7003;48602;45.192;5.722;2022-07-24T09:32:00;23.00;21.50;17.00
62547;PMS7003;48602;45.192;5.722;2022-07-24T09:34:28;15.25;13.75;11.00
62547;PMS7003;48602;45.192;5.722;2022-07-24T09:37:05;19.75;19.75;16.00
62547;PMS7003;48602;45.192;5.722;2022-07-24T09:39:33;21.75;20.50;15.50
62547;PMS7003;48602;45.192;5.722;2022-07-24T09:42:00;23.50;22.50;17.75
62547;PMS7003;48602;45.192;5.722;2022-07-24T09:44:27;24.25;22.50;17.00
62547;PMS7003;48602;45.192;5.722;2022-07-24T09:47:02;27.75;25.00;18.50
62547;PMS7003;48602;45.192;5.722;2022-07-24T09:49:29;22.00;21.00;16.00
62547;PMS7003;48602;45.192;5.722;2022-07-24T09:54:34;28.50;24.00;18.50
62547;PMS7003;48602;45.192;5.722;2022-07-24T09:59:45;24.00;23.75;18.75
62547;PMS7003;48602;45.192;5.722;2022-07-24T10:02:16;25.33;22.67;18.00
62547;PMS7003;48602;45.192;5.722;2022-07-24T10:04:44;22.75;22.75;18.00
62547;PMS7003;48602;45.192;5.722;2022-07-24T10:07:15;21.00;20.50;17.25
62547;PMS7003;48602;45.192;5.722;2022-07-24T10:09:43;22.00;21.00;15.75
62547;PMS7003;48602;45.192;5.722;2022-07-24T10:12:17;25.50;23.00;18.25
62547;PMS7003;48602;45.192;5.722;2022-07-24T10:14:44;23.50;23.00;18.00
62547;PMS7003;48602;45.192;5.722;2022-07-24T10:17:13;26.50;26.50;20.50
62547;PMS7003;48602;45.192;5.722;2022-07-24T10:19:43;25.75;23.00;18.00
62547;PMS7003;48602;45.192;5.722;2022-07-24T10:22:14;25.25;22.25;17.25
62547;PMS7003;48602;45.192;5.722;2022-07-24T10:29:57;20.25;19.00;15.50
62547;PMS7003;48602;45.192;5.722;2022-07-24T10:32:24;25.67;24.67;18.00
62547;PMS7003;48602;45.192;5.722;2022-07-24T10:35:04;21.50;21.00;17.00
62547;PMS7003;48602;45.192;5.722;2022-07-24T10:42:29;19.75;19.00;15.75
62547;PMS7003;48602;45.192;5.722;2022-07-24T10:47:42;23.67;23.67;17.00
62547;PMS7003;48602;45.192;5.722;2022-07-24T10:50:09;25.33;24.00;19.00
62547;PMS7003;48602;45.192;5.722;2022-07-24T10:52:35;23.00;23.00;18.00
62547;PMS7003;48602;45.192;5.722;2022-07-24T10:58:11;21.00;21.00;17.00
62547;PMS7003;48602;45.192;5.722;2022-07-24T11:00:45;24.25;21.00;17.25
62547;PMS7003;48602;45.192;5.722;2022-07-24T11:03:24;24.00;22.75;16.75
62547;PMS7003;48602;45.192;5.722;2022-07-24T11:06:07;24.00;20.33;16.67
62547;PMS7003;48602;45.192;5.722;2022-07-24T11:08:38;24.67;23.67;18.33
62547;PMS7003;48602;45.192;5.722;2022-07-24T11:11:16;19.75;19.75;16.00
62547;PMS7003;48602;45.192;5.722;2022-07-24T11:13:48;26.33;24.33;19.00
62547;PMS7003;48602;45.192;5.722;2022-07-24T11:21:30;21.00;21.00;16.25
62547;PMS7003;48602;45.192;5.722;2022-07-24T11:26:45;18.75;18.75;15.75
62547;PMS7003;48602;45.192;5.722;2022-07-24T11:31:42;20.50;19.25;15.75
62547;PMS7003;48602;45.192;5.722;2022-07-24T11:34:08;21.25;19.50;14.50
62547;PMS7003;48602;45.192;5.722;2022-07-24T11:36:35;18.00;17.00;14.00
62547;PMS7003;48602;45.192;5.722;2022-07-24T11:39:02;13.50;13.50;11.25
62547;PMS7003;48602;45.192;5.722;2022-07-24T11:41:37;24.33;23.33;18.67
62547;PMS7003;48602;45.192;5.722;2022-07-24T11:44:30;23.33;21.00;16.33
62547;PMS7003;48602;45.192;5.722;2022-07-24T11:49:51;18.50;17.25;13.50
62547;PMS7003;48602;45.192;5.722;2022-07-24T11:54:58;17.00;16.50;15.25
62547;PMS7003;48602;45.192;5.722;2022-07-24T11:57:27;19.50;19.50;15.00
62547;PMS7003;48602;45.192;5.722;2022-07-24T11:59:57;19.75;19.75;15.50
62547;PMS7003;48602;45.192;5.722;2022-07-24T12:02:23;19.00;18.00;13.50
62547;PMS7003;48602;45.192;5.722;2022-07-24T12:04:49;16.75;16.50;12.50
62547;PMS7003;48602;45.192;5.722;2022-07-24T12:07:20;18.00;17.75;14.75
62547;PMS7003;48602;45.192;5.722;2022-07-24T12:14:47;17.00;16.25;13.75
62547;PMS7003;48602;45.192;5.722;2022-07-24T12:17:13;15.00;15.00;12.00
62547;PMS7003;48602;45.192;5.722;2022-07-24T12:19:39;18.00;17.75;15.00
62547;PMS7003;48602;45.192;5.722;2022-07-24T12:22:04;26.00;24.00;18.67
62547;PMS7003;48602;45.192;5.722;2022-07-24T12:24:31;20.75;20.25;15.00
62547;PMS7003;48602;45.192;5.722;2022-07-24T12:26:58;17.50;16.75;14.00
62547;PMS7003;48602;45.192;5.722;2022-07-24T12:29:25;18.00;18.00;14.75
62547;PMS7003;48602;45.192;5.722;2022-07-24T12:34:43;17.75;16.00;14.00
62547;PMS7003;48602;45.192;5.722;2022-07-24T12:37:15;18.00;18.00;15.00
62547;PMS7003;48602;45.192;5.722;2022-07-24T12:39:48;20.00;18.67;15.00
62547;PMS7003;48602;45.192;5.722;2022-07-24T12:42:15;20.25;19.50;15.75
62547;PMS7003;48602;45.192;5.722;2022-07-24T12:44:42;19.75;17.50;15.00
62547;PMS7003;48602;45.192;5.722;2022-07-24T12:47:09;22.25;21.25;17.00
62547;PMS7003;48602;45.192;5.722;2022-07-24T12:49:42;20.00;20.00;16.00
62547;PMS7003;48602;45.192;5.722;2022-07-24T12:52:25;17.50;17.50;14.50
62547;PMS7003;48602;45.192;5.722;2022-07-24T12:54:53;18.00;17.50;14.50
62547;PMS7003;48602;45.192;5.722;2022-07-24T12:57:21;19.00;18.25;14.50
62547;PMS7003;48602;45.192;5.722;2022-07-24T12:59:48;19.25;19.25;15.25
62547;PMS7003;48602;45.192;5.722;2022-07-24T13:02:15;21.50;20.25;16.25
62547;PMS7003;48602;45.192;5.722;2022-07-24T13:04:46;17.00;15.50;12.25
62547;PMS7003;48602;45.192;5.722;2022-07-24T13:07:13;20.75;18.00;13.50
62547;PMS7003;48602;45.192;5.722;2022-07-24T13:09:40;21.50;19.50;17.00
62547;PMS7003;48602;45.192;5.722;2022-07-24T13:12:06;19.00;18.75;13.25
62547;PMS7003;48602;45.192;5.722;2022-07-24T13:14:33;17.75;17.75;14.25
62547;PMS7003;48602;45.192;5.722;2022-07-24T13:17:03;19.00;16.50;14.00
62547;PMS7003;48602;45.192;5.722;2022-07-24T13:19:29;21.75;20.25;15.50
62547;PMS7003;48602;45.192;5.722;2022-07-24T13:21:54;19.25;18.25;13.50
62547;PMS7003;48602;45.192;5.722;2022-07-24T13:24:20;19.00;17.00;13.25
62547;PMS7003;48602;45.192;5.722;2022-07-24T13:26:45;17.25;17.25;15.25
62547;PMS7003;48602;45.192;5.722;2022-07-24T13:29:11;19.75;16.25;13.50
62547;PMS7003;48602;45.192;5.722;2022-07-24T13:31:37;18.00;18.00;15.75
62547;PMS7003;48602;45.192;5.722;2022-07-24T13:34:04;17.75;17.25;13.75
62547;PMS7003;48602;45.192;5.722;2022-07-24T13:36:31;16.50;15.25;12.50
62547;PMS7003;48602;45.192;5.722;2022-07-24T13:38:58;21.00;20.00;16.50
62547;PMS7003;48602;45.192;5.722;2022-07-24T13:41:24;17.50;15.25;12.75
62547;PMS7003;48602;45.192;5.722;2022-07-24T13:43:49;19.00;17.75;14.25
62547;PMS7003;48602;45.192;5.722;2022-07-24T13:46:15;16.00;16.00;13.50
62547;PMS7003;48602;45.192;5.722;2022-07-24T13:48:41;20.25;19.00;16.75
62547;PMS7003;48602;45.192;5.722;2022-07-24T13:51:08;18.25;16.50;13.75
62547;PMS7003;48602;45.192;5.722;2022-07-24T13:53:33;18.50;17.50;13.75
62547;PMS7003;48602;45.192;5.722;2022-07-24T13:55:59;19.00;17.00;14.00
62547;PMS7003;48602;45.192;5.722;2022-07-24T13:58:24;15.75;15.75;13.50
62547;PMS7003;48602;45.192;5.722;2022-07-24T14:00:49;20.00;17.75;14.25
62547;PMS7003;48602;45.192;5.722;2022-07-24T14:03:15;11.25;10.75;10.75
62547;PMS7003;48602;45.192;5.722;2022-07-24T14:05:40;18.00;18.00;13.25
62547;PMS7003;48602;45.192;5.722;2022-07-24T14:08:06;16.50;16.50;14.75
62547;PMS7003;48602;45.192;5.722;2022-07-24T14:10:33;18.00;17.67;14.00
62547;PMS7003;48602;45.192;5.722;2022-07-24T14:12:58;17.75;15.00;11.25
62547;PMS7003;48602;45.192;5.722;2022-07-24T14:15:24;15.00;14.50;13.00
62547;PMS7003;48602;45.192;5.722;2022-07-24T14:17:50;13.75;13.50;10.75
62547;PMS7003;48602;45.192;5.722;2022-07-24T14:20:15;15.50;15.00;12.50
62547;PMS7003;48602;45.192;5.722;2022-07-24T14:22:41;16.50;16.50;13.75
62547;PMS7003;48602;45.192;5.722;2022-07-24T14:25:07;17.00;17.00;14.33
62547;PMS7003;48602;45.192;5.722;2022-07-24T14:27:34;14.75;13.75;12.75
62547;PMS7003;48602;45.192;5.722;2022-07-24T14:30:00;14.75;14.50;12.00